createdAt,value
2022-12-27T00:01:55.352Z,101787.47
2022-12-27T00:04:23.833Z,101785.72
2022-12-27T00:06:52.044Z,101795.41
2022-12-27T00:09:20.337Z,101797.06
2022-12-27T00:11:48.628Z,101796.19
2022-12-27T00:14:16.931Z,101787.53
2022-12-27T00:16:45.294Z,101793.59
2022-12-27T00:19:14.981Z,101789.31
2022-12-27T00:21:43.217Z,101790.22
2022-12-27T00:24:12.148Z,101787.75
2022-12-27T00:26:41.022Z,101786.88
2022-12-27T00:29:09.342Z,101790.41
2022-12-27T00:31:39.666Z,101793.06
2022-12-27T00:34:09.650Z,101793.97
2022-12-27T00:36:39.321Z,101796.63
2022-12-27T00:39:07.634Z,101796.50
2022-12-27T00:41:35.901Z,101795.94
2022-12-27T00:44:04.514Z,101798.53
2022-12-27T00:46:32.850Z,101797.78
2022-12-27T00:49:01.118Z,101796.97
2022-12-27T00:51:29.506Z,101806.59
2022-12-27T00:53:59.177Z,101806.59
2022-12-27T00:56:29.806Z,101806.72
2022-12-27T00:59:00.769Z,101804.25
2022-12-27T01:01:31.389Z,101814.78
2022-12-27T01:04:00.219Z,101816.69
2022-12-27T01:06:34.917Z,101813.34
2022-12-27T01:09:06.118Z,101810.97
2022-12-27T01:11:35.273Z,101815.50
2022-12-27T01:14:06.120Z,101811.22
2022-12-27T01:16:35.894Z,101820.75
2022-12-27T01:19:04.287Z,101823.44
2022-12-27T01:21:32.638Z,101825.28
2022-12-27T01:24:01.072Z,101817.59
2022-12-27T01:26:30.744Z,101822.88
2022-12-27T01:28:59.045Z,101825.53
2022-12-27T01:31:29.550Z,101824.81
2022-12-27T01:33:59.941Z,101830.94
2022-12-27T01:36:30.008Z,101850.94
2022-12-27T01:38:59.211Z,101835.59
2022-12-27T01:41:49.932Z,101846.19
2022-12-27T01:44:50.804Z,101843.66
2022-12-27T01:47:41.858Z,101860.19
2022-12-27T01:50:20.660Z,101854.31
2022-12-27T01:52:57.785Z,101848.56
2022-12-27T01:55:33.244Z,101874.91
2022-12-27T01:58:08.785Z,101890.56
2022-12-27T02:00:37.483Z,101880.84
2022-12-27T02:03:07.420Z,101889.31
2022-12-27T02:05:41.709Z,101888.38
2022-12-27T02:08:36.906Z,101880.38
2022-12-27T02:11:07.245Z,101886.41
2022-12-27T02:13:42.867Z,101876.16
2022-12-27T02:16:14.703Z,101879.72
2022-12-27T02:18:43.943Z,101887.59
2022-12-27T02:21:57.370Z,101883.25
2022-12-27T02:25:01.761Z,101893.63
2022-12-27T02:27:56.342Z,101893.56
2022-12-27T02:30:26.249Z,101896.13
2022-12-27T02:33:02.245Z,101895.16
2022-12-27T02:35:36.981Z,101894.06
2022-12-27T02:38:11.859Z,101885.88
2022-12-27T02:41:01.005Z,101901.03
2022-12-27T02:43:47.438Z,101897.50
2022-12-27T02:46:40.359Z,101904.47
2022-12-27T02:49:43.177Z,101907.75
2022-12-27T02:52:43.111Z,101900.78
2022-12-27T02:55:32.862Z,101898.25
2022-12-27T02:58:19.074Z,101887.31
2022-12-27T03:01:13.200Z,101891.13
2022-12-27T03:04:12.004Z,101901.84
2022-12-27T03:07:09.364Z,101918.56
2022-12-27T03:10:10.067Z,101910.19
2022-12-27T03:13:18.802Z,101912.69
2022-12-27T03:16:05.245Z,101916.06
2022-12-27T03:19:08.964Z,101903.91
2022-12-27T03:21:59.800Z,101909.34
2022-12-27T03:24:49.838Z,101918.97
2022-12-27T03:27:28.416Z,101923.09
2022-12-27T03:30:16.763Z,101922.13
2022-12-27T03:33:08.638Z,101922.09
2022-12-27T03:36:04.483Z,101921.25
2022-12-27T03:38:36.559Z,101927.13
2022-12-27T03:41:25.882Z,101917.69
2022-12-27T03:43:54.208Z,101919.47
2022-12-27T03:46:33.829Z,101923.00
2022-12-27T03:49:15.619Z,101926.56
2022-12-27T03:51:50.691Z,101952.88
2022-12-27T03:54:26.509Z,101956.63
2022-12-27T03:56:58.661Z,101953.47
2022-12-27T03:59:27.440Z,101941.44
2022-12-27T04:01:55.971Z,101954.63
2022-12-27T04:04:24.725Z,101962.53
2022-12-27T04:06:54.383Z,101960.00
2022-12-27T04:09:40.343Z,101956.34
2022-12-27T04:12:26.497Z,101961.34
2022-12-27T04:15:12.436Z,101955.94
2022-12-27T04:17:58.031Z,101961.06
2022-12-27T04:20:44.402Z,101951.16
2022-12-27T04:23:31.546Z,101970.19
2022-12-27T04:26:17.464Z,101971.72
2022-12-27T04:29:03.368Z,101972.41
2022-12-27T04:31:48.840Z,101973.16
2022-12-27T04:34:35.404Z,101978.03
2022-12-27T04:37:04.483Z,101970.72
2022-12-27T04:39:34.472Z,101969.47
2022-12-27T04:42:20.092Z,101963.97
2022-12-27T04:45:10.200Z,101987.16
2022-12-27T04:47:59.025Z,101986.94
2022-12-27T04:50:48.149Z,101976.22
2022-12-27T04:53:42.032Z,101980.38
2022-12-27T04:56:11.784Z,101985.34
2022-12-27T04:59:00.123Z,101987.13
2022-12-27T05:01:46.044Z,101989.66
2022-12-27T05:04:14.716Z,101987.06
2022-12-27T05:06:43.078Z,101998.38
2022-12-27T05:09:28.709Z,101990.91
2022-12-27T05:12:15.052Z,102009.31
2022-12-27T05:14:43.323Z,102008.06
2022-12-27T05:17:11.597Z,102005.59
2022-12-27T05:19:40.068Z,102003.22
2022-12-27T05:22:26.134Z,102008.69
2022-12-27T05:25:11.772Z,102021.00
2022-12-27T05:27:41.458Z,102022.84
2022-12-27T05:30:11.348Z,102020.25
2022-12-27T05:32:39.581Z,102018.25
2022-12-27T05:35:08.714Z,102032.59
2022-12-27T05:37:36.925Z,102036.63
2022-12-27T05:40:06.480Z,102030.38
2022-12-27T05:42:34.771Z,102032.84
2022-12-27T05:45:04.872Z,102032.63
2022-12-27T05:47:33.745Z,102035.16
2022-12-27T05:50:02.047Z,102051.59
2022-12-27T05:52:36.191Z,102048.19
2022-12-27T05:55:08.668Z,102051.53
2022-12-27T05:57:37.007Z,102051.47
2022-12-27T06:00:09.268Z,102058.19
2022-12-27T06:02:39.540Z,102060.44
2022-12-27T06:05:08.980Z,102055.03
2022-12-27T06:07:38.635Z,102049.41
2022-12-27T06:10:09.340Z,102057.97
2022-12-27T06:12:38.196Z,102059.59
2022-12-27T06:15:09.110Z,102071.47
2022-12-27T06:17:37.366Z,102061.09
2022-12-27T06:20:06.847Z,102071.31
2022-12-27T06:22:35.130Z,102057.97
2022-12-27T06:25:03.625Z,102070.03
2022-12-27T06:27:31.937Z,102075.22
2022-12-27T06:30:00.241Z,102070.00
2022-12-27T06:32:30.116Z,102068.09
2022-12-27T06:34:58.387Z,102077.53
2022-12-27T06:37:26.726Z,102085.13
2022-12-27T06:39:54.983Z,102088.47
2022-12-27T06:42:23.278Z,102089.97
2022-12-27T06:44:51.542Z,102088.91
2022-12-27T06:47:20.079Z,102090.47
2022-12-27T06:49:49.727Z,102098.16
2022-12-27T06:52:17.985Z,102107.78
2022-12-27T06:54:46.364Z,102113.78
2022-12-27T06:57:14.767Z,102112.00
2022-12-27T06:59:43.044Z,102118.88
2022-12-27T07:02:12.777Z,102128.41
2022-12-27T07:04:41.233Z,102131.84
2022-12-27T07:07:15.650Z,102126.66
2022-12-27T07:09:44.517Z,102123.66
2022-12-27T07:12:13.558Z,102142.19
2022-12-27T07:14:41.862Z,102141.47
2022-12-27T07:17:10.131Z,102145.75
2022-12-27T07:19:38.473Z,102147.38
2022-12-27T07:22:06.800Z,102148.13
2022-12-27T07:24:36.494Z,102151.44
2022-12-27T07:27:05.295Z,102154.75
2022-12-27T07:29:33.660Z,102159.94
2022-12-27T07:32:02.053Z,102157.34
2022-12-27T07:34:30.443Z,102162.47
2022-12-27T07:36:58.676Z,102174.59
2022-12-27T07:39:26.976Z,102169.75
2022-12-27T07:41:56.688Z,102168.44
2022-12-27T07:44:25.044Z,102178.13
2022-12-27T07:46:53.400Z,102181.66
2022-12-27T07:49:21.688Z,102184.28
2022-12-27T07:51:50.997Z,102193.03
2022-12-27T07:54:19.414Z,102193.03
2022-12-27T07:56:47.664Z,102192.91
2022-12-27T07:59:17.553Z,102194.50
2022-12-27T08:02:03.261Z,102199.69
2022-12-27T08:04:33.057Z,102196.28
2022-12-27T08:07:08.533Z,102199.06
2022-12-27T08:09:41.110Z,102202.13
2022-12-27T08:12:09.897Z,102208.44
2022-12-27T08:14:39.502Z,102204.84
2022-12-27T08:17:14.497Z,102215.22
2022-12-27T08:19:42.833Z,102218.78
2022-12-27T08:22:11.355Z,102217.91
2022-12-27T08:24:41.629Z,102214.44
2022-12-27T08:27:10.091Z,102224.94
2022-12-27T08:29:40.046Z,102225.09
2022-12-27T08:32:08.362Z,102222.69
2022-12-27T08:34:36.724Z,102222.75
2022-12-27T08:37:05.029Z,102225.50
2022-12-27T08:39:33.390Z,102224.69
2022-12-27T08:42:01.683Z,102234.50
2022-12-27T08:44:30.004Z,102238.94
2022-12-27T08:46:59.582Z,102245.03
2022-12-27T08:49:27.863Z,102239.03
2022-12-27T08:51:56.112Z,102243.50
2022-12-27T08:54:25.068Z,102251.31
2022-12-27T08:56:53.347Z,102247.94
2022-12-27T08:59:21.647Z,102248.00
2022-12-27T09:01:50.008Z,102254.97
2022-12-27T09:04:19.744Z,102249.72
2022-12-27T09:06:47.968Z,102262.84
2022-12-27T09:09:16.494Z,102253.44
2022-12-27T09:11:45.167Z,102256.19
2022-12-27T09:14:13.544Z,102266.72
2022-12-27T09:16:41.798Z,102266.06
2022-12-27T09:19:11.468Z,102262.72
2022-12-27T09:21:43.990Z,102272.53
2022-12-27T09:24:13.108Z,102264.09
2022-12-27T09:26:42.541Z,102274.63
2022-12-27T09:29:11.827Z,102276.56
2022-12-27T09:31:40.092Z,102280.38
2022-12-27T09:34:08.335Z,102273.09
2022-12-27T09:36:41.451Z,102271.56
2022-12-27T09:39:12.250Z,102267.78
2022-12-27T09:44:47.385Z,102275.13
2022-12-27T09:47:21.773Z,102281.81
2022-12-27T09:49:54.289Z,102273.03
2022-12-27T09:52:33.016Z,102277.28
2022-12-27T09:55:07.825Z,102273.75
2022-12-27T09:57:39.984Z,102281.72
2022-12-27T10:00:16.886Z,102273.19
2022-12-27T10:02:46.185Z,102278.38
2022-12-27T10:05:22.743Z,102281.09
2022-12-27T10:08:09.026Z,102269.94
2022-12-27T10:10:46.260Z,102284.84
2022-12-27T10:13:31.152Z,102291.06
2022-12-27T10:16:11.868Z,102291.94
2022-12-27T10:18:53.722Z,102290.53
2022-12-27T10:21:25.320Z,102293.53
2022-12-27T10:23:58.235Z,102299.72
2022-12-27T10:26:26.643Z,102292.25
2022-12-27T10:29:00.131Z,102294.38
2022-12-27T10:31:29.880Z,102290.28
2022-12-27T10:33:59.102Z,102298.25
2022-12-27T10:36:29.546Z,102303.88
2022-12-27T10:38:59.199Z,102310.38
2022-12-27T10:41:50.189Z,102310.94
2022-12-27T10:44:20.050Z,102311.66
2022-12-27T10:46:53.340Z,102300.13
2022-12-27T10:49:27.512Z,102292.84
2022-12-27T10:51:59.835Z,102300.25
2022-12-27T10:54:31.378Z,102302.28
2022-12-27T10:57:19.830Z,102303.34
2022-12-27T11:00:18.468Z,102296.78
2022-12-27T11:02:54.707Z,102306.00
2022-12-27T11:05:26.540Z,102312.59
2022-12-27T11:07:55.227Z,102307.94
2022-12-27T11:10:28.089Z,102304.16
2022-12-27T11:12:59.568Z,102307.13
2022-12-27T11:15:28.682Z,102308.28
2022-12-27T11:17:59.813Z,102303.16
2022-12-27T11:20:31.560Z,102300.63
2022-12-27T11:23:04.309Z,102304.91
2022-12-27T11:25:34.851Z,102319.53
2022-12-27T11:28:05.876Z,102312.47
2022-12-27T11:30:36.658Z,102311.53
2022-12-27T11:33:24.562Z,102320.16
2022-12-27T11:35:57.071Z,102328.09
2022-12-27T11:38:28.591Z,102325.03
2022-12-27T11:41:04.505Z,102314.88
2022-12-27T11:43:37.130Z,102320.19
2022-12-27T11:46:18.096Z,102314.91
2022-12-27T11:48:47.375Z,102314.88
2022-12-27T11:51:41.160Z,102313.06
2022-12-27T11:54:30.849Z,102309.66
2022-12-27T11:57:20.113Z,102301.34
2022-12-27T12:00:01.279Z,102301.41
2022-12-27T12:03:00.837Z,102290.09
2022-12-27T12:06:04.629Z,102287.38
2022-12-27T12:09:06.115Z,102289.88
2022-12-27T12:11:55.125Z,102278.59
2022-12-27T12:15:11.632Z,102276.81
2022-12-27T12:18:01.927Z,102271.63
2022-12-27T12:21:05.963Z,102273.50
2022-12-27T12:23:55.264Z,102271.19
2022-12-27T12:26:25.198Z,102268.38
2022-12-27T12:29:26.226Z,102275.41
2022-12-27T12:32:34.241Z,102265.69
2022-12-27T12:35:28.863Z,102264.03
2022-12-27T12:38:20.047Z,102265.69
2022-12-27T12:41:17.982Z,102259.53
2022-12-27T12:44:34.032Z,102256.81
2022-12-27T12:47:16.024Z,102268.06
2022-12-27T12:50:01.997Z,102249.69
2022-12-27T12:53:17.059Z,102260.03
2022-12-27T12:56:10.715Z,102260.03
2022-12-27T12:58:54.159Z,102252.09
2022-12-27T13:01:50.499Z,102248.50
2022-12-27T13:04:32.416Z,102250.31
2022-12-27T13:07:23.358Z,102240.81
2022-12-27T13:10:16.238Z,102242.44
2022-12-27T13:12:53.030Z,102231.03
2022-12-27T13:15:34.643Z,102223.16
2022-12-27T13:18:16.463Z,102214.50
2022-12-27T13:21:14.967Z,102227.56
2022-12-27T13:23:54.985Z,102205.72
2022-12-27T13:26:38.075Z,102204.72
2022-12-27T13:29:36.007Z,102196.84
2022-12-27T13:32:14.611Z,102199.34
2022-12-27T13:34:55.289Z,102196.69
2022-12-27T13:37:37.952Z,102191.31
2022-12-27T13:40:36.284Z,102198.06
2022-12-27T13:43:38.330Z,102193.47
2022-12-27T13:46:35.296Z,102196.69
2022-12-27T13:49:33.273Z,102187.75
2022-12-27T13:52:14.300Z,102183.19
2022-12-27T13:55:27.455Z,102185.66
2022-12-27T13:58:36.625Z,102173.19
2022-12-27T14:01:30.938Z,102169.34
2022-12-27T14:04:52.331Z,102164.84
2022-12-27T14:07:54.311Z,102167.19
2022-12-27T14:10:37.317Z,102169.72
2022-12-27T14:13:08.703Z,102161.91
2022-12-27T14:16:30.009Z,102173.03
2022-12-27T14:19:21.311Z,102157.34
2022-12-27T14:22:10.129Z,102172.13
2022-12-27T14:25:37.250Z,102178.19
2022-12-27T14:29:01.214Z,102166.88
2022-12-27T14:32:05.540Z,102160.84
2022-12-27T14:35:29.786Z,102158.22
2022-12-27T14:38:45.151Z,102163.50
2022-12-27T14:42:06.143Z,102163.50
2022-12-27T14:45:36.420Z,102158.31
2022-12-27T14:49:01.976Z,102160.84
2022-12-27T14:52:34.586Z,102151.19
2022-12-27T14:55:27.595Z,102142.34
2022-12-27T14:58:33.483Z,102149.97
2022-12-27T15:01:12.017Z,102145.44
2022-12-27T15:04:05.727Z,102156.50
2022-12-27T15:06:58.165Z,102150.22
2022-12-27T15:09:36.896Z,102155.38
2022-12-27T15:12:16.065Z,102151.00
2022-12-27T15:15:06.181Z,102154.25
2022-12-27T15:17:55.185Z,102140.22
2022-12-27T15:20:59.841Z,102142.50
2022-12-27T15:23:39.878Z,102140.56
2022-12-27T15:26:22.463Z,102146.34
2022-12-27T15:29:22.772Z,102145.22
2022-12-27T15:32:05.663Z,102143.94
2022-12-27T15:34:57.391Z,102135.81
2022-12-27T15:38:08.247Z,102134.66
2022-12-27T15:41:10.239Z,102123.13
2022-12-27T15:44:11.588Z,102120.31
2022-12-27T15:47:18.918Z,102130.47
2022-12-27T15:50:32.110Z,102128.44
2022-12-27T15:53:35.303Z,102131.00
2022-12-27T15:56:44.547Z,102125.59
2022-12-27T15:59:43.166Z,102131.88
2022-12-27T16:02:26.835Z,102125.16
2022-12-27T16:04:58.497Z,102128.13
2022-12-27T16:07:52.576Z,102125.91
2022-12-27T16:10:50.370Z,102117.69
2022-12-27T16:13:41.336Z,102114.50
2022-12-27T16:17:00.239Z,102116.41
2022-12-27T16:20:09.693Z,102108.63
2022-12-27T16:22:41.101Z,102109.53
2022-12-27T16:25:33.678Z,102099.81
2022-12-27T16:28:06.715Z,102099.56
2022-12-27T16:30:44.209Z,102102.75
2022-12-27T16:33:37.763Z,102098.13
2022-12-27T16:36:32.822Z,102088.34
2022-12-27T16:39:26.534Z,102090.66
2022-12-27T16:42:06.876Z,102084.22
2022-12-27T16:45:02.641Z,102083.94
2022-12-27T16:48:08.093Z,102086.28
2022-12-27T16:50:54.236Z,102076.50
2022-12-27T16:54:16.618Z,102072.94
2022-12-27T16:56:48.217Z,102075.50
2022-12-27T16:59:56.479Z,102066.75
2022-12-27T17:02:41.859Z,102065.72
2022-12-27T17:05:37.357Z,102055.38
2022-12-27T17:08:20.243Z,102060.59
2022-12-27T17:11:05.299Z,102057.09
2022-12-27T17:13:43.270Z,102054.44
2022-12-27T17:16:23.090Z,102049.22
2022-12-27T17:18:57.983Z,102042.13
2022-12-27T17:21:31.592Z,102033.38
2022-12-27T17:24:06.997Z,102035.16
2022-12-27T17:27:02.173Z,102029.00
2022-12-27T17:30:13.517Z,102022.78
2022-12-27T17:33:19.303Z,102020.13
2022-12-27T17:36:07.875Z,102003.59
2022-12-27T17:38:57.882Z,101997.34
2022-12-27T17:41:57.018Z,101991.28
2022-12-27T17:44:40.443Z,101984.25
2022-12-27T17:47:28.428Z,101981.56
2022-12-27T17:50:00.475Z,101974.53
2022-12-27T17:52:46.245Z,101974.66
2022-12-27T17:55:53.954Z,101971.06
2022-12-27T17:58:22.228Z,101964.94
2022-12-27T18:00:58.311Z,101962.41
2022-12-27T18:03:32.744Z,101963.38
2022-12-27T18:06:01.153Z,101958.44
2022-12-27T18:08:34.305Z,101964.59
2022-12-27T18:11:06.952Z,101958.69
2022-12-27T18:13:39.159Z,101954.50
2022-12-27T18:16:17.266Z,101954.63
2022-12-27T18:18:50.049Z,101948.69
2022-12-27T18:21:27.018Z,101949.75
2022-12-27T18:23:56.130Z,101944.81
2022-12-27T18:26:37.806Z,101939.03
2022-12-27T18:29:06.777Z,101941.19
2022-12-27T18:31:40.561Z,101935.38
2022-12-27T18:34:21.449Z,101934.81
2022-12-27T18:36:53.143Z,101927.28
2022-12-27T18:39:29.167Z,101922.44
2022-12-27T18:42:01.171Z,101922.72
2022-12-27T18:44:33.797Z,101911.72
2022-12-27T18:47:04.903Z,101920.69
2022-12-27T18:49:36.225Z,101919.19
2022-12-27T18:52:14.591Z,101910.75
2022-12-27T18:54:43.960Z,101916.22
2022-12-27T18:57:36.028Z,101902.53
2022-12-27T19:00:19.726Z,101899.19
2022-12-27T19:02:48.162Z,101893.25
2022-12-27T19:05:30.110Z,101902.09
2022-12-27T19:08:12.110Z,101899.63
2022-12-27T19:10:49.492Z,101882.44
2022-12-27T19:13:28.532Z,101881.72
2022-12-27T19:15:58.530Z,101875.66
2022-12-27T19:18:30.390Z,101876.59
2022-12-27T19:21:01.703Z,101881.09
2022-12-27T19:23:34.113Z,101874.28
2022-12-27T19:26:20.574Z,101870.03
2022-12-27T19:29:04.312Z,101866.66
2022-12-27T19:31:33.064Z,101868.44
2022-12-27T19:34:04.898Z,101865.88
2022-12-27T19:36:38.668Z,101857.22
2022-12-27T19:39:25.406Z,101858.09
2022-12-27T19:42:01.111Z,101846.78
2022-12-27T19:44:32.896Z,101845.84
2022-12-27T19:47:01.681Z,101839.66
2022-12-27T19:49:45.539Z,101829.19
2022-12-27T19:52:19.603Z,101841.28
2022-12-27T19:54:57.947Z,101836.00
2022-12-27T19:57:26.289Z,101825.59
2022-12-27T19:59:55.931Z,101824.78
2022-12-27T20:02:24.983Z,101810.00
2022-12-27T20:04:53.529Z,101814.38
2022-12-27T20:07:24.417Z,101811.03
2022-12-27T20:09:52.773Z,101792.00
2022-12-27T20:12:22.611Z,101786.78
2022-12-27T20:14:50.972Z,101783.31
2022-12-27T20:17:20.965Z,101784.97
2022-12-27T20:19:51.685Z,101777.06
2022-12-27T20:22:20.098Z,101780.63
2022-12-27T20:24:48.323Z,101780.63
2022-12-27T20:27:16.640Z,101776.22
2022-12-27T20:29:45.220Z,101778.03
2022-12-27T20:32:13.597Z,101776.38
2022-12-27T20:34:43.390Z,101780.72
2022-12-27T20:37:11.993Z,101777.38
2022-12-27T20:39:40.299Z,101769.41
2022-12-27T20:42:08.718Z,101777.44
2022-12-27T20:44:37.040Z,101771.41
2022-12-27T20:47:05.459Z,101774.13
2022-12-27T20:49:33.849Z,101766.44
2022-12-27T20:52:03.558Z,101746.56
2022-12-27T20:54:31.847Z,101734.47
2022-12-27T20:57:00.998Z,101744.06
2022-12-27T20:59:29.287Z,101734.56
2022-12-27T21:01:58.306Z,101729.34
2022-12-27T21:04:28.138Z,101731.00
2022-12-27T21:06:56.662Z,101725.81
2022-12-27T21:09:26.257Z,101732.81
2022-12-27T21:11:54.999Z,101725.00
2022-12-27T21:14:25.622Z,101721.53
2022-12-27T21:16:54.240Z,101719.78
2022-12-27T21:19:22.624Z,101717.13
2022-12-27T21:21:50.887Z,101720.53
2022-12-27T21:24:19.287Z,101713.50
2022-12-27T21:26:56.066Z,101712.63
2022-12-27T21:29:24.857Z,101701.31
2022-12-27T21:31:53.673Z,101703.00
2022-12-27T21:34:22.238Z,101684.66
2022-12-27T21:36:53.101Z,101702.94
2022-12-27T21:39:21.661Z,101682.94
2022-12-27T21:41:51.374Z,101682.03
2022-12-27T21:44:21.215Z,101681.97
2022-12-27T21:46:49.554Z,101683.63
2022-12-27T21:49:18.033Z,101676.66
2022-12-27T21:51:46.502Z,101674.00
2022-12-27T21:54:16.324Z,101679.22
2022-12-27T21:56:44.675Z,101665.38
2022-12-27T21:59:14.430Z,101661.84
2022-12-27T22:01:51.989Z,101655.81
2022-12-27T22:04:21.964Z,101646.22
2022-12-27T22:06:50.481Z,101648.78
2022-12-27T22:09:19.549Z,101636.56
2022-12-27T22:11:48.992Z,101643.53
2022-12-27T22:14:24.898Z,101634.84
2022-12-27T22:16:53.858Z,101635.75
2022-12-27T22:19:22.365Z,101629.66
2022-12-27T22:21:50.597Z,101624.44
2022-12-27T22:24:19.865Z,101625.34
2022-12-27T22:26:50.180Z,101620.94
2022-12-27T22:29:21.688Z,101613.13
2022-12-27T22:31:50.100Z,101607.91
2022-12-27T22:34:18.537Z,101601.84
2022-12-27T22:36:46.784Z,101586.19
2022-12-27T22:39:15.090Z,101581.00
2022-12-27T22:41:43.400Z,101582.75
2022-12-27T22:44:14.642Z,101577.53
2022-12-27T22:49:33.208Z,101570.56
2022-12-27T22:52:01.556Z,101559.34
2022-12-27T22:55:03.106Z,101575.84
2022-12-27T22:57:18.158Z,101568.88
2022-12-27T22:59:46.442Z,101568.88
2022-12-27T23:02:16.176Z,101562.66
2022-12-27T23:04:44.604Z,101564.13
2022-12-27T23:07:12.995Z,101576.84
2022-12-27T23:09:43.722Z,101561.78
2022-12-27T23:12:12.741Z,101565.84
2022-12-27T23:14:41.334Z,101555.28
2022-12-27T23:17:09.696Z,101552.56
2022-12-27T23:19:42.013Z,101538.53
2022-12-27T23:22:10.498Z,101541.94
2022-12-27T23:24:38.746Z,101524.50
2022-12-27T23:27:07.039Z,101522.69
2022-12-27T23:29:35.384Z,101518.28
2022-12-27T23:32:03.861Z,101516.50
2022-12-27T23:34:32.463Z,101518.16
2022-12-27T23:37:02.223Z,101519.03
2022-12-27T23:39:30.576Z,101508.50
2022-12-27T23:41:58.892Z,101511.09
2022-12-27T23:44:33.388Z,101500.59
2022-12-27T23:47:05.890Z,101489.31
2022-12-27T23:49:34.678Z,101477.06
2022-12-27T23:52:04.665Z,101474.41
2022-12-27T23:54:33.002Z,101475.25
2022-12-27T23:57:22.545Z,101455.25
2022-12-27T23:59:50.159Z,101455.22
